Time;durP1;ratioP1;P1;durP2;ratioP2;P2;SDS_P1;SDS_P2;PMS_P1;PMS_P2;Temp;Humidity;BMP_temperature;BMP_pressure;BME280_temperature;BME280_humidity;BME280_pressure;Samples;Min_cycle;Max_cycle;Signal;HPM_P1;HPM_P2
2021/08/22 00:01:09;;;;;;;10.48;5.43;;;;;;;18.76;69.52;99246.47;5050577;28;20055;-65
2021/08/22 00:03:34;;;;;;;20.65;6.05;;;;;;;18.80;69.64;99263.84;5051609;28;20072;-65
2021/08/22 00:06:00;;;;;;;15.52;6.57;;;;;;;18.71;70.03;99254.69;5065845;28;20040;-66
2021/08/22 00:08:26;;;;;;;18.80;6.07;;;;;;;18.61;70.15;99254.44;5071381;28;20135;-67
2021/08/22 00:10:51;;;;;;;17.05;6.38;;;;;;;18.56;70.68;99256.50;5070835;28;20041;-65
2021/08/22 00:13:17;;;;;;;12.60;6.80;;;;;;;18.38;71.12;99244.44;5069788;28;20406;-67
2021/08/22 00:15:51;;;;;;;18.08;7.47;;;;;;;18.38;71.88;99262.97;5054537;28;20434;-65
2021/08/22 00:18:17;;;;;;;19.42;8.82;;;;;;;18.35;71.93;99261.38;5070206;28;20040;-67
2021/08/22 00:20:42;;;;;;;20.13;8.52;;;;;;;18.28;72.21;99256.56;5058364;28;20041;-65
2021/08/22 00:23:08;;;;;;;15.70;7.85;;;;;;;18.13;72.16;99246.94;5050865;28;20033;-67
2021/08/22 00:25:34;;;;;;;19.92;7.57;;;;;;;18.16;72.32;99262.63;5050364;28;20139;-67
2021/08/22 00:28:00;;;;;;;16.08;6.95;;;;;;;18.10;72.69;99264.72;5051226;28;20052;-66
2021/08/22 00:30:25;;;;;;;11.82;5.95;;;;;;;17.94;72.84;99242.81;5051844;28;20044;-66
2021/08/22 00:32:51;;;;;;;14.63;7.03;;;;;;;17.91;72.81;99252.72;5059103;28;20048;-65
2021/08/22 00:35:17;;;;;;;21.55;7.13;;;;;;;17.98;73.11;99270.78;5074759;28;20630;-65
2021/08/22 00:37:43;;;;;;;15.35;6.93;;;;;;;17.93;73.49;99270.22;5038867;28;20032;-66
2021/08/22 00:40:09;;;;;;;10.98;6.32;;;;;;;17.91;74.13;99271.25;5071791;28;20071;-66
2021/08/22 00:42:36;;;;;;;20.45;6.35;;;;;;;17.85;74.23;99271.63;5073596;28;20040;-68
2021/08/22 00:45:06;;;;;;;16.15;6.80;;;;;;;17.77;74.30;99270.28;5039676;28;20053;-65
2021/08/22 00:47:41;;;;;;;13.85;6.57;;;;;;;17.73;73.98;99275.84;5068901;28;20527;-66
2021/08/22 00:50:07;;;;;;;19.45;7.05;;;;;;;17.62;74.10;99257.09;5054769;28;20048;-67
2021/08/22 00:52:34;;;;;;;12.27;6.53;;;;;;;17.69;74.09;99266.41;5035840;28;20496;-64
2021/08/22 00:55:04;;;;;;;17.38;6.97;;;;;;;17.64;74.23;99269.28;5019188;28;20040;-65
2021/08/22 00:57:30;;;;;;;17.63;7.40;;;;;;;17.59;74.26;99273.16;5036300;28;20041;-65
2021/08/22 00:59:59;;;;;;;16.55;7.40;;;;;;;17.51;74.43;99272.78;5035513;28;20037;-65
2021/08/22 01:02:29;;;;;;;19.92;8.65;;;;;;;17.45;74.94;99274.84;5054196;28;20098;-65
2021/08/22 01:05:17;;;;;;;12.98;8.23;;;;;;;17.39;75.09;99277.84;5057115;28;20111;-64
2021/08/22 01:07:50;;;;;;;16.23;8.43;;;;;;;17.30;75.18;99277.53;5073178;28;20063;-66
2021/08/22 01:10:20;;;;;;;20.88;8.85;;;;;;;17.21;75.19;99280.72;5073340;28;20138;-65
2021/08/22 01:12:48;;;;;;;15.00;7.38;;;;;;;17.15;75.08;99282.78;5056287;28;20044;-65
2021/08/22 01:15:15;;;;;;;13.43;7.57;;;;;;;17.09;75.22;99275.22;5055530;28;20405;-66
2021/08/22 01:17:44;;;;;;;16.67;7.50;;;;;;;17.02;75.20;99265.94;5055443;28;20051;-66
2021/08/22 01:20:16;;;;;;;13.93;7.55;;;;;;;17.03;75.18;99275.56;5055565;28;20051;-66
2021/08/22 01:22:43;;;;;;;16.58;7.43;;;;;;;16.97;75.27;99270.63;5055534;28;20056;-65
2021/08/22 01:25:10;;;;;;;14.38;7.63;;;;;;;16.93;75.16;99278.81;5073579;28;20493;-65
2021/08/22 01:27:38;;;;;;;15.93;7.03;;;;;;;16.83;75.40;99266.13;5055855;28;20497;-66
2021/08/22 01:30:08;;;;;;;13.32;7.25;;;;;;;16.83;75.42;99273.22;5055213;28;20564;-65
2021/08/22 01:32:44;;;;;;;14.35;7.43;;;;;;;16.73;75.43;99258.81;5051488;28;20609;-65
2021/08/22 01:35:17;;;;;;;11.35;7.60;;;;;;;16.77;75.33;99284.13;5051427;28;20051;-66
2021/08/22 01:37:44;;;;;;;12.23;7.20;;;;;;;16.66;75.34;99254.84;5035332;28;20041;-66
2021/08/22 01:40:11;;;;;;;17.60;8.05;;;;;;;16.60;75.25;99253.38;5052941;28;20136;-67
2021/08/22 01:42:39;;;;;;;15.15;8.30;;;;;;;16.65;75.28;99279.50;5051701;28;20041;-67
2021/08/22 01:45:07;;;;;;;18.67;8.43;;;;;;;16.49;75.33;99256.63;5068889;28;20517;-65
2021/08/22 01:47:34;;;;;;;12.15;7.57;;;;;;;16.43;75.16;99258.75;5052751;28;20064;-68
2021/08/22 01:50:02;;;;;;;13.60;7.95;;;;;;;16.49;74.87;99277.72;5035894;28;20054;-65
2021/08/22 01:52:28;;;;;;;15.45;8.40;;;;;;;16.45;75.13;99270.06;5035740;28;20040;-66
2021/08/22 01:54:54;;;;;;;12.98;7.68;;;;;;;16.49;75.39;99271.59;5053512;28;20110;-66
2021/08/22 01:57:20;;;;;;;11.20;6.72;;;;;;;17.07;72.67;99252.44;5051822;28;20040;-68
2021/08/22 01:59:45;;;;;;;12.77;6.38;;;;;;;17.53;71.02;99255.03;5062037;28;20055;-65
2021/08/22 02:02:11;;;;;;;11.55;6.30;;;;;;;18.09;68.49;99283.34;5072295;28;20515;-64
2021/08/22 02:04:53;;;;;;;9.23;5.57;;;;;;;18.99;65.10;99277.59;5052181;28;20144;-64
2021/08/22 02:07:24;;;;;;;12.10;6.30;;;;;;;18.84;64.97;99271.50;5035042;28;20132;-65
2021/08/22 02:10:14;;;;;;;10.38;6.00;;;;;;;18.66;65.80;99284.16;5051925;28;20095;-65
2021/08/22 02:12:40;;;;;;;9.77;5.93;;;;;;;18.66;65.46;99262.09;5035220;28;20191;-65
2021/08/22 02:15:23;;;;;;;7.00;5.88;;;;;;;18.83;65.09;99279.56;5062381;28;20068;-66
2021/08/22 02:17:52;;;;;;;9.20;5.93;;;;;;;18.62;65.63;99282.66;5071703;28;20170;-63
2021/08/22 02:20:18;;;;;;;10.43;6.30;;;;;;;18.11;67.69;99260.28;5055150;28;20177;-65
2021/08/22 02:22:46;;;;;;;14.32;6.40;;;;;;;17.87;69.44;99277.69;5071462;28;20047;-64
2021/08/22 02:25:13;;;;;;;10.98;6.38;;;;;;;17.55;70.83;99274.28;5071963;28;20602;-64
2021/08/22 02:27:39;;;;;;;15.50;6.45;;;;;;;17.22;71.75;99263.94;5072220;28;20055;-64
2021/08/22 02:30:06;;;;;;;16.42;7.20;;;;;;;17.06;73.43;99270.09;5063166;28;20064;-64
2021/08/22 02:32:51;;;;;;;14.02;6.90;;;;;;;16.86;74.51;99272.19;5034313;28;20084;-65
2021/08/22 02:35:16;;;;;;;21.35;10.73;;;;;;;16.68;75.38;99285.50;5051344;28;20055;-65
2021/08/22 02:37:42;;;;;;;23.55;12.55;;;;;;;16.55;75.47;99273.03;5035231;28;20049;-65
2021/08/22 02:40:09;;;;;;;22.95;12.30;;;;;;;16.46;76.32;99280.53;5053088;28;20096;-65
2021/08/22 02:42:34;;;;;;;21.98;10.25;;;;;;;16.19;77.64;99264.41;5053283;28;20468;-64
2021/08/22 02:45:00;;;;;;;16.38;10.18;;;;;;;16.12;79.07;99283.31;5071594;28;20179;-65
2021/08/22 02:47:26;;;;;;;25.50;10.38;;;;;;;16.08;79.10;99284.41;5054391;28;20044;-66
2021/08/22 02:49:51;;;;;;;16.02;10.30;;;;;;;15.98;79.05;99281.41;5072751;28;20067;-65
2021/08/22 02:52:17;;;;;;;18.38;9.60;;;;;;;16.16;78.41;99285.69;5037338;28;20087;-64
2021/08/22 02:54:43;;;;;;;12.70;9.05;;;;;;;16.24;78.66;99290.53;5037825;28;20177;-64
2021/08/22 02:57:09;;;;;;;16.95;10.10;;;;;;;16.38;77.97;99284.53;5072053;28;20516;-66
2021/08/22 02:59:34;;;;;;;14.18;9.57;;;;;;;16.27;77.34;99279.81;5065126;28;20040;-64
2021/08/22 03:02:00;;;;;;;16.70;10.13;;;;;;;16.26;77.81;99293.09;5062402;28;20084;-65
2021/08/22 03:04:26;;;;;;;14.45;9.80;;;;;;;16.06;77.95;99281.84;5018506;28;20052;-64
2021/08/22 03:06:52;;;;;;;22.48;10.52;;;;;;;16.02;78.10;99290.00;5052659;28;20041;-64
2021/08/22 03:09:18;;;;;;;15.73;10.90;;;;;;;16.03;77.95;99287.28;5051746;28;20581;-66
2021/08/22 03:11:43;;;;;;;17.63;10.20;;;;;;;16.39;77.38;99304.72;5066599;28;20383;-66
2021/08/22 03:14:09;;;;;;;15.45;9.60;;;;;;;17.25;74.02;99306.91;5053693;28;20076;-64
2021/08/22 03:16:35;;;;;;;14.88;9.52;;;;;;;18.10;70.21;99308.88;5033466;28;20103;-68
2021/08/22 03:19:01;;;;;;;13.73;8.07;;;;;;;18.30;68.78;99312.91;5051393;28;20506;-66
2021/08/22 03:21:27;;;;;;;10.10;7.85;;;;;;;18.86;66.77;99305.84;5049919;28;20048;-65
2021/08/22 03:23:52;;;;;;;10.85;7.80;;;;;;;19.53;63.98;99310.22;5058239;28;20037;-67
2021/08/22 03:26:18;;;;;;;13.63;7.15;;;;;;;20.09;61.57;99321.41;5070690;28;20489;-65
2021/08/22 03:28:44;;;;;;;13.40;7.72;;;;;;;19.96;61.21;99326.69;5052356;28;20044;-67
2021/08/22 03:31:09;;;;;;;9.77;6.55;;;;;;;20.35;60.58;99321.38;5070150;28;20390;-66
2021/08/22 03:33:35;;;;;;;11.20;6.80;;;;;;;20.84;58.43;99305.44;5071847;28;20044;-67
2021/08/22 03:36:01;;;;;;;13.20;7.10;;;;;;;21.73;56.10;99329.78;5071015;28;20505;-65
2021/08/22 03:38:27;;;;;;;8.65;6.32;;;;;;;21.81;55.58;99322.06;5071698;28;20040;-66
2021/08/22 03:40:53;;;;;;;10.45;5.68;;;;;;;21.60;54.54;99304.22;5054238;28;20060;-66
2021/08/22 03:43:18;;;;;;;9.10;5.80;;;;;;;21.70;54.56;99282.09;5054763;28;20041;-67
2021/08/22 03:45:44;;;;;;;8.15;5.78;;;;;;;22.34;53.65;99319.72;5050346;28;20114;-65
2021/08/22 03:48:10;;;;;;;10.57;5.57;;;;;;;22.78;51.85;99315.31;5049414;28;20045;-64
2021/08/22 03:50:36;;;;;;;10.93;4.78;;;;;;;23.25;50.55;99322.13;5051250;28;20095;-66
2021/08/22 03:53:01;;;;;;;7.97;4.63;;;;;;;23.55;49.75;99316.06;5048761;28;20044;-65
2021/08/22 03:55:27;;;;;;;9.55;4.50;;;;;;;23.71;49.21;99313.78;5049763;28;20123;-66
2021/08/22 03:57:53;;;;;;;7.53;4.60;;;;;;;24.05;48.59;99318.91;5052860;28;20383;-66
2021/08/22 04:00:18;;;;;;;6.20;4.13;;;;;;;24.10;47.61;99314.03;5051395;28;20047;-66
2021/08/22 04:02:44;;;;;;;6.55;4.07;;;;;;;24.16;47.84;99307.28;5049387;28;20037;-66
2021/08/22 04:05:28;;;;;;;7.22;3.80;;;;;;;24.14;47.20;99296.75;5067197;28;20166;-66
2021/08/22 04:07:55;;;;;;;6.68;4.10;;;;;;;23.93;48.07;99314.63;5074085;28;20075;-66
2021/08/22 04:10:21;;;;;;;9.38;4.68;;;;;;;23.67;48.55;99312.34;5074029;28;20051;-66
2021/08/22 04:12:47;;;;;;;7.50;4.30;;;;;;;24.26;47.47;99313.53;5052864;28;20041;-66
2021/08/22 04:15:12;;;;;;;7.05;4.05;;;;;;;24.28;46.58;99300.91;5037004;28;20533;-66
2021/08/22 04:17:38;;;;;;;5.68;4.20;;;;;;;24.63;45.93;99293.31;5054128;28;20041;-67
2021/08/22 04:20:05;;;;;;;6.15;4.50;;;;;;;24.71;45.63;99314.00;5054002;28;20053;-66
2021/08/22 04:22:31;;;;;;;11.30;4.20;;;;;;;24.69;45.74;99298.09;5036701;28;20540;-66
2021/08/22 04:24:57;;;;;;;6.75;4.75;;;;;;;25.18;44.65;99319.59;5053340;28;20049;-65
2021/08/22 04:27:23;;;;;;;6.22;4.43;;;;;;;26.06;42.94;99313.22;5054156;28;20059;-67
2021/08/22 04:29:48;;;;;;;6.72;4.32;;;;;;;25.92;42.56;99317.19;5038811;28;20121;-67
2021/08/22 04:32:14;;;;;;;7.97;4.22;;;;;;;26.20;42.65;99321.63;5073094;28;20147;-66
2021/08/22 04:34:40;;;;;;;6.82;4.05;;;;;;;25.00;44.60;99314.09;5056269;28;20080;-65
2021/08/22 04:37:06;;;;;;;5.82;4.18;;;;;;;24.26;47.03;99318.88;5073954;28;20039;-67
2021/08/22 04:39:31;;;;;;;6.57;4.97;;;;;;;23.07;50.31;99323.66;5074413;28;20048;-66
2021/08/22 04:41:57;;;;;;;7.55;4.95;;;;;;;22.79;51.18;99330.34;5059474;28;20044;-66
2021/08/22 04:44:23;;;;;;;8.68;5.22;;;;;;;22.29;52.71;99316.56;5054326;28;20059;-66
2021/08/22 04:46:48;;;;;;;6.18;4.68;;;;;;;21.91;53.86;99340.00;5054104;28;20044;-66
2021/08/22 04:49:14;;;;;;;9.80;4.47;;;;;;;21.49;55.16;99331.63;5052890;28;20033;-66
2021/08/22 04:51:40;;;;;;;5.25;4.30;;;;;;;21.25;56.26;99319.22;5050119;28;20045;-66
2021/08/22 04:54:06;;;;;;;7.00;4.30;;;;;;;21.23;56.88;99342.41;5060434;28;20048;-65
2021/08/22 04:56:31;;;;;;;7.13;4.43;;;;;;;21.06;56.99;99345.44;5072603;28;20047;-65
2021/08/22 04:58:57;;;;;;;6.72;5.50;;;;;;;20.31;59.27;99334.88;5073012;28;20520;-65
2021/08/22 05:01:41;;;;;;;6.93;5.25;;;;;;;20.11;60.95;99347.84;5073338;28;20040;-66
2021/08/22 05:04:07;;;;;;;5.78;5.28;;;;;;;19.97;61.05;99343.47;5055943;28;20055;-65
2021/08/22 05:06:33;;;;;;;7.53;6.05;;;;;;;19.68;62.36;99351.63;5074360;28;20100;-64
2021/08/22 05:08:59;;;;;;;8.43;5.97;;;;;;;19.99;61.62;99353.03;5066413;28;20482;-66
2021/08/22 05:11:25;;;;;;;7.40;5.65;;;;;;;19.86;61.86;99336.25;5052211;28;20466;-65
2021/08/22 05:13:51;;;;;;;9.30;6.47;;;;;;;19.53;63.31;99357.13;5052302;28;20033;-66
2021/08/22 05:16:16;;;;;;;8.73;6.80;;;;;;;19.40;63.62;99358.88;5052561;28;20048;-66
2021/08/22 05:18:42;;;;;;;8.02;7.22;;;;;;;19.38;64.38;99371.38;5052496;28;20407;-64
2021/08/22 05:21:10;;;;;;;12.48;6.82;;;;;;;19.30;64.41;99372.72;5035463;28;20119;-66
2021/08/22 05:23:35;;;;;;;8.55;6.68;;;;;;;19.45;64.67;99383.28;5056341;28;20493;-67
2021/08/22 05:26:01;;;;;;;8.45;6.47;;;;;;;19.52;63.80;99376.63;5054339;28;20546;-65
2021/08/22 05:28:27;;;;;;;8.00;6.70;;;;;;;19.40;64.88;99380.94;5053385;28;20394;-67
2021/08/22 05:30:53;;;;;;;9.90;5.97;;;;;;;19.35;64.95;99383.91;5072935;28;20198;-66
2021/08/22 05:33:19;;;;;;;7.15;5.47;;;;;;;19.19;64.81;99359.31;5053012;28;20139;-65
2021/08/22 05:35:44;;;;;;;11.10;5.63;;;;;;;19.18;65.44;99385.91;5073036;28;20047;-66
2021/08/22 05:38:10;;;;;;;5.55;4.95;;;;;;;19.09;66.18;99371.47;5023729;28;20068;-66
2021/08/22 05:40:36;;;;;;;8.25;5.22;;;;;;;18.98;67.12;99384.56;5073194;28;20041;-65
2021/08/22 05:43:02;;;;;;;11.02;5.50;;;;;;;19.23;66.42;99384.66;5072385;28;20127;-66
2021/08/22 05:45:27;;;;;;;9.30;5.35;;;;;;;19.28;66.03;99361.34;5071354;28;20387;-66
2021/08/22 05:47:53;;;;;;;5.90;4.22;;;;;;;19.42;65.23;99388.78;5072923;28;20465;-67
2021/08/22 05:50:20;;;;;;;5.35;4.03;;;;;;;19.42;64.47;99378.19;5071547;28;20064;-66
2021/08/22 05:52:46;;;;;;;5.03;4.00;;;;;;;19.10;66.09;99394.38;5069743;28;20090;-68
2021/08/22 05:55:11;;;;;;;6.40;3.47;;;;;;;19.02;66.40;99399.31;5071907;28;20044;-66
2021/08/22 05:57:37;;;;;;;6.93;3.80;;;;;;;19.00;66.02;99398.56;5072484;28;20497;-67
2021/08/22 06:00:06;;;;;;;6.40;3.40;;;;;;;19.08;66.23;99396.28;5071543;28;20135;-67
2021/08/22 06:02:38;;;;;;;7.65;3.33;;;;;;;19.04;66.26;99413.31;5071587;28;20036;-66
2021/08/22 06:05:05;;;;;;;12.35;3.63;;;;;;;18.95;66.37;99392.72;5055225;28;20051;-66
2021/08/22 06:07:30;;;;;;;8.07;3.53;;;;;;;18.66;66.89;99384.81;5062381;28;20048;-66
2021/08/22 06:09:58;;;;;;;3.63;3.30;;;;;;;18.49;68.29;99400.84;5035778;28;20114;-67
2021/08/22 06:12:24;;;;;;;4.47;3.20;;;;;;;18.69;67.97;99411.13;5050648;28;20048;-66
2021/08/22 06:14:49;;;;;;;5.32;3.05;;;;;;;19.09;66.70;99405.94;5035187;28;20045;-67
2021/08/22 06:17:15;;;;;;;70.63;49.53;;;;;;;19.05;66.90;99392.00;5052070;28;20037;-66
2021/08/22 06:19:41;;;;;;;12.65;7.05;;;;;;;19.17;67.11;99406.28;5034080;28;20041;-68
2021/08/22 06:22:07;;;;;;;5.38;3.53;;;;;;;18.82;67.87;99362.66;5034288;28;20437;-66
2021/08/22 06:24:32;;;;;;;6.88;3.65;;;;;;;18.94;68.14;99405.09;5051304;28;20041;-66
2021/08/22 06:26:59;;;;;;;6.75;3.95;;;;;;;18.75;69.21;99409.03;5050824;28;20089;-67
2021/08/22 06:29:25;;;;;;;6.35;3.35;;;;;;;18.73;69.02;99414.44;5051144;28;20048;-66
2021/08/22 06:31:51;;;;;;;5.25;3.83;;;;;;;18.66;69.58;99416.59;5050254;28;20541;-66
2021/08/22 06:34:17;;;;;;;6.90;3.47;;;;;;;18.61;69.76;99415.16;5052563;28;20166;-68
2021/08/22 06:36:43;;;;;;;3.47;3.17;;;;;;;18.48;69.44;99407.09;5068838;28;20056;-67
2021/08/22 06:39:09;;;;;;;12.25;3.35;;;;;;;18.32;70.24;99412.50;5071820;28;20394;-67
2021/08/22 06:41:35;;;;;;;4.30;3.17;;;;;;;18.18;70.54;99399.25;5069151;28;20082;-69
2021/08/22 06:44:02;;;;;;;6.65;3.35;;;;;;;18.20;70.89;99417.69;5037372;28;20129;-67
2021/08/22 06:46:28;;;;;;;4.47;3.33;;;;;;;18.35;70.42;99422.91;5071062;28;20154;-67
2021/08/22 06:48:54;;;;;;;3.10;2.80;;;;;;;18.49;69.48;99421.19;5070328;28;20200;-68
2021/08/22 06:51:19;;;;;;;5.28;3.03;;;;;;;18.49;68.89;99430.00;5052208;28;20149;-66
2021/08/22 06:53:46;;;;;;;5.47;3.30;;;;;;;18.55;69.12;99421.66;5051858;28;20383;-66
2021/08/22 06:56:11;;;;;;;25.52;18.58;;;;;;;18.51;68.32;99438.69;5032265;28;20051;-68
2021/08/22 06:58:37;;;;;;;6.75;4.30;;;;;;;18.44;68.38;99442.66;5049094;28;20049;-68
2021/08/22 07:01:05;;;;;;;5.68;3.75;;;;;;;18.45;68.44;99433.78;5048939;28;20055;-67
2021/08/22 07:03:31;;;;;;;5.38;2.65;;;;;;;18.36;68.41;99436.97;5061499;28;20056;-66
2021/08/22 07:05:58;;;;;;;6.35;2.83;;;;;;;18.33;68.41;99439.81;5070472;28;20066;-66
2021/08/22 07:08:24;;;;;;;10.60;2.50;;;;;;;18.32;68.08;99435.47;5071501;28;20556;-67
2021/08/22 07:10:50;;;;;;;7.18;2.65;;;;;;;18.27;67.42;99424.31;5069857;28;20051;-66
2021/08/22 07:13:16;;;;;;;3.42;2.63;;;;;;;18.68;66.19;99438.56;5069852;28;20052;-67
2021/08/22 07:15:41;;;;;;;3.05;2.78;;;;;;;18.71;66.18;99434.88;5020963;28;20134;-66
2021/08/22 07:18:07;;;;;;;3.00;2.80;;;;;;;18.82;65.47;99437.69;5061761;28;20033;-66
2021/08/22 07:20:33;;;;;;;5.75;2.40;;;;;;;18.78;65.02;99424.72;5051443;28;20041;-67
2021/08/22 07:22:59;;;;;;;4.03;2.63;;;;;;;18.72;65.75;99444.53;5051361;28;20045;-66
2021/08/22 07:25:24;;;;;;;4.18;2.40;;;;;;;18.81;65.33;99446.59;5048265;28;20053;-65
2021/08/22 07:27:50;;;;;;;2.55;2.20;;;;;;;19.03;64.53;99460.19;5049320;28;20067;-66
2021/08/22 07:30:16;;;;;;;5.60;1.98;;;;;;;18.98;62.68;99448.19;5047019;28;20045;-67
2021/08/22 07:32:42;;;;;;;2.35;2.15;;;;;;;18.89;62.69;99443.47;5032104;28;20059;-69
2021/08/22 07:35:08;;;;;;;3.47;1.80;;;;;;;18.87;61.32;99398.50;5049773;28;20041;-67
2021/08/22 07:37:34;;;;;;;4.55;2.25;;;;;;;19.42;60.01;99457.75;5049296;28;20545;-68
2021/08/22 07:40:00;;;;;;;5.20;2.20;;;;;;;19.40;59.25;99443.75;5060327;28;20037;-67
2021/08/22 07:42:26;;;;;;;6.50;2.38;;;;;;;19.57;58.29;99467.41;5068066;28;20568;-68
2021/08/22 07:44:52;;;;;;;4.05;1.73;;;;;;;19.30;58.05;99408.97;5051121;28;20048;-67
2021/08/22 07:47:17;;;;;;;3.50;1.65;;;;;;;19.79;57.94;99467.69;5056217;28;20041;-67
2021/08/22 07:49:43;;;;;;;6.53;1.70;;;;;;;19.95;57.03;99476.31;5050203;28;20409;-67
2021/08/22 07:52:09;;;;;;;4.60;2.47;;;;;;;20.07;57.26;99466.72;5047798;28;20045;-69
2021/08/22 07:54:35;;;;;;;3.05;2.10;;;;;;;19.97;57.68;99471.75;5048812;28;20048;-66
2021/08/22 07:57:00;;;;;;;5.60;2.20;;;;;;;19.91;57.43;99472.16;5048128;28;20557;-66
2021/08/22 07:59:28;;;;;;;7.45;2.50;;;;;;;20.15;57.32;99479.47;5046973;28;20079;-67
2021/08/22 08:01:54;;;;;;;4.85;2.00;;;;;;;20.41;55.89;99477.72;5038188;28;20044;-67
2021/08/22 08:04:20;;;;;;;2.85;2.13;;;;;;;20.90;53.89;99478.66;5069016;28;20049;-68
2021/08/22 08:06:46;;;;;;;9.55;2.10;;;;;;;21.07;53.28;99477.47;5069717;28;20070;-68
2021/08/22 08:09:12;;;;;;;6.15;1.92;;;;;;;21.65;51.63;99478.59;5018072;28;20048;-68
2021/08/22 08:14:22;;;;;;;8.43;1.90;;;;;;;22.36;48.46;99483.03;5051939;28;20040;-67
2021/08/22 08:16:48;;;;;;;2.55;1.67;;;;;;;22.13;48.83;99481.25;5064254;28;20120;-67
2021/08/22 08:19:14;;;;;;;2.72;1.50;;;;;;;21.85;49.09;99482.44;5050345;28;20102;-66
2021/08/22 08:21:39;;;;;;;4.28;1.90;;;;;;;21.89;49.23;99486.56;5050055;28;20041;-67
2021/08/22 08:24:05;;;;;;;3.08;2.00;;;;;;;21.80;50.29;99489.94;5062298;28;20086;-67
2021/08/22 08:26:31;;;;;;;3.17;2.28;;;;;;;22.79;46.88;99498.34;5070203;28;20040;-69
2021/08/22 08:28:57;;;;;;;10.52;3.35;;;;;;;22.64;46.73;99487.06;5034900;28;20047;-68
2021/08/22 08:31:23;;;;;;;3.25;1.73;;;;;;;22.23;48.69;99494.72;5064233;28;20065;-68
2021/08/22 08:33:49;;;;;;;4.95;2.50;;;;;;;22.87;46.85;99503.94;5068725;28;20444;-67
2021/08/22 08:36:15;;;;;;;5.40;1.95;;;;;;;22.68;46.93;99482.34;5068819;28;20051;-66
2021/08/22 08:38:40;;;;;;;2.20;1.80;;;;;;;22.40;47.02;99483.63;5051522;28;20459;-67
2021/08/22 08:41:06;;;;;;;3.65;1.60;;;;;;;22.59;47.28;99494.56;5054365;28;20075;-66
2021/08/22 08:43:32;;;;;;;4.38;1.70;;;;;;;22.11;48.46;99480.50;5034707;28;20036;-67
2021/08/22 08:46:11;;;;;;;6.15;2.22;;;;;;;21.94;48.97;99503.06;5059247;28;20676;-67
2021/08/22 08:48:44;;;;;;;5.30;2.10;;;;;;;21.97;48.76;99502.81;5063604;28;20549;-74
2021/08/22 08:51:16;;;;;;;5.50;1.92;;;;;;;21.83;49.72;99516.31;5070674;28;20048;-68
2021/08/22 08:53:59;;;;;;;4.70;2.08;;;;;;;21.54;50.23;99521.94;5054503;28;20428;-67
2021/08/22 08:56:26;;;;;;;3.67;1.90;;;;;;;21.55;50.08;99512.16;5053657;28;20048;-71
2021/08/22 08:58:52;;;;;;;7.07;1.77;;;;;;;21.55;49.84;99506.81;5038503;28;20044;-65
2021/08/22 09:01:18;;;;;;;6.40;2.08;;;;;;;21.47;49.87;99503.88;5067733;28;20047;-68
2021/08/22 09:04:20;;;;;;;9.13;2.15;;;;;;;21.63;49.00;99532.91;5020524;28;20044;-63
2021/08/22 09:07:24;;;;;;;1.90;1.67;;;;;;;21.67;49.40;99529.91;5072044;28;20398;-70
2021/08/22 09:10:11;;;;;;;2.80;1.80;;;;;;;21.53;49.27;99538.03;5038250;28;20075;-62
2021/08/22 09:13:14;;;;;;;1.65;1.50;;;;;;;21.43;49.73;99544.97;5072395;28;20048;-65
2021/08/22 09:15:49;;;;;;;3.47;1.85;;;;;;;21.50;49.29;99540.91;5059850;28;20044;-65
2021/08/22 09:21:49;;;;;;;5.45;2.88;;;;;;;22.28;46.99;99549.34;5072488;28;20059;-63
2021/08/22 09:24:18;;;;;;;3.15;1.75;;;;;;;22.33;46.63;99551.69;5073306;28;20047;-64
2021/08/22 09:27:22;;;;;;;9.07;2.08;;;;;;;22.11;47.36;99552.44;5055295;28;20037;-65
2021/08/22 09:30:21;;;;;;;1.50;1.40;;;;;;;22.03;47.00;99546.81;5065483;28;20493;-63
2021/08/22 09:33:22;;;;;;;7.40;2.08;;;;;;;21.86;47.66;99554.22;5034525;28;20135;-78
2021/08/22 09:36:03;;;;;;;3.53;1.52;;;;;;;22.04;47.22;99554.72;5068417;28;20076;-74
2021/08/22 09:38:53;;;;;;;1.67;1.57;;;;;;;21.93;47.27;99553.78;5036671;28;20074;-74
2021/08/22 09:41:58;;;;;;;3.67;1.77;;;;;;;21.70;47.86;99563.44;5037885;28;20036;-82
2021/08/22 09:45:05;;;;;;;5.13;1.95;;;;;;;22.02;46.89;99559.25;5068626;28;20047;-73
2021/08/22 09:48:10;;;;;;;3.38;1.83;;;;;;;21.85;46.81;99557.84;5052093;28;20063;-70
2021/08/22 09:51:14;;;;;;;2.17;1.50;;;;;;;21.87;46.21;99566.56;5039093;28;20138;-70
2021/08/22 09:53:39;;;;;;;3.92;1.77;;;;;;;21.95;46.35;99567.81;5037523;28;20143;-79
2021/08/22 09:56:43;;;;;;;2.60;1.70;;;;;;;21.88;47.04;99573.59;5055165;28;20182;-75
2021/08/22 09:59:47;;;;;;;2.58;1.48;;;;;;;22.17;45.87;99573.28;5068208;28;20055;-77
2021/08/22 10:02:38;;;;;;;5.32;1.40;;;;;;;22.08;45.31;99581.97;5067518;28;20090;-77
2021/08/22 10:05:13;;;;;;;4.35;1.70;;;;;;;22.22;44.53;99568.47;5070233;28;20052;-77
2021/08/22 10:07:50;;;;;;;5.88;1.75;;;;;;;22.37;44.24;99583.34;5070201;28;20046;-78
2021/08/22 10:10:21;;;;;;;2.78;1.95;;;;;;;22.56;43.79;99576.59;5050764;28;20478;-77
2021/08/22 10:12:46;;;;;;;4.50;1.90;;;;;;;22.27;45.47;99574.28;5052308;28;20058;-77
2021/08/22 10:15:17;;;;;;;6.03;3.33;;;;;;;22.31;46.06;99575.78;5053457;28;20139;-77
2021/08/22 10:17:47;;;;;;;6.07;2.60;;;;;;;22.21;45.33;99577.41;5034370;28;20045;-67
2021/08/22 10:20:14;;;;;;;4.68;2.50;;;;;;;22.23;45.17;99580.81;5051380;28;20067;-69
2021/08/22 10:22:41;;;;;;;6.53;2.38;;;;;;;21.85;45.51;99592.47;5034594;28;20386;-68
2021/08/22 10:25:12;;;;;;;12.65;2.35;;;;;;;21.67;46.12;99590.28;5034430;28;20048;-70
2021/08/22 10:27:41;;;;;;;6.20;3.38;;;;;;;21.30;46.76;99581.41;5035320;28;20128;-74
2021/08/22 10:30:09;;;;;;;9.40;3.85;;;;;;;20.78;48.29;99585.84;5068513;28;20525;-72
2021/08/22 10:32:58;;;;;;;4.80;3.83;;;;;;;20.94;48.17;99586.50;5050640;28;20051;-68
2021/08/22 10:35:28;;;;;;;6.47;3.92;;;;;;;20.88;47.99;99599.38;5017573;28;20299;-83
2021/08/22 10:37:54;;;;;;;6.78;4.10;;;;;;;20.89;47.87;99595.75;5034321;28;20498;-80
2021/08/22 10:40:23;;;;;;;6.50;3.75;;;;;;;20.89;47.98;99577.16;5038620;28;20046;-86
2021/08/22 10:42:50;;;;;;;6.32;3.60;;;;;;;21.01;47.75;99605.56;5030975;28;20466;-83
2021/08/22 10:45:48;;;;;;;5.30;3.50;;;;;;;21.36;47.23;99599.59;5030126;28;20045;-84
2021/08/22 10:48:23;;;;;;;8.15;3.10;;;;;;;21.32;46.74;99593.66;5013211;28;20045;-85
2021/08/22 10:50:59;;;;;;;7.20;2.55;;;;;;;21.38;45.52;99595.00;5014280;28;20041;-83
2021/08/22 10:53:39;;;;;;;3.17;2.70;;;;;;;21.36;46.03;99591.63;5018554;28;20038;-83
2021/08/22 10:56:24;;;;;;;4.78;2.47;;;;;;;21.28;46.22;99589.50;5045200;28;20041;-83
2021/08/22 10:58:59;;;;;;;10.75;3.17;;;;;;;21.33;45.99;99590.03;5046534;28;20053;-83
2021/08/22 11:01:26;;;;;;;3.13;2.38;;;;;;;21.30;44.90;99576.09;5046867;28;20559;-83
2021/08/22 11:04:07;;;;;;;4.95;2.08;;;;;;;21.43;45.33;99598.19;5049517;28;20478;-83
2021/08/22 11:06:53;;;;;;;2.45;1.70;;;;;;;21.20;44.55;99579.38;5031566;28;20064;-84
2021/08/22 11:09:42;;;;;;;4.20;2.40;;;;;;;21.53;43.68;99591.25;5048621;28;20486;-72
2021/08/22 11:12:32;;;;;;;3.50;2.10;;;;;;;21.69;44.07;99588.38;5013216;28;20079;-75
2021/08/22 11:15:00;;;;;;;3.83;1.92;;;;;;;21.78;43.21;99601.00;5051683;28;20049;-73
2021/08/22 11:17:26;;;;;;;3.50;3.20;;;;;;;21.64;43.61;99591.38;5048818;28;20041;-64
2021/08/22 11:19:53;;;;;;;11.40;8.63;;;;;;;21.55;43.82;99592.00;5032301;28;20049;-64
2021/08/22 11:22:28;;;;;;;5.25;3.33;;;;;;;21.58;43.84;99588.31;5050564;28;20080;-63
2021/08/22 11:24:58;;;;;;;3.95;2.10;;;;;;;21.64;43.91;99587.84;5032088;28;20049;-64
2021/08/22 11:27:26;;;;;;;3.70;1.90;;;;;;;21.71;44.02;99592.63;5029156;28;20045;-65
2021/08/22 11:30:00;;;;;;;5.88;2.00;;;;;;;21.68;43.34;99590.19;4996822;28;20083;-65
2021/08/22 11:32:27;;;;;;;3.45;1.88;;;;;;;21.52;44.18;99584.25;5030913;28;20118;-65
2021/08/22 11:35:07;;;;;;;4.03;1.95;;;;;;;21.55;43.91;99584.91;5015777;28;20143;-71
2021/08/22 11:37:33;;;;;;;3.22;1.75;;;;;;;21.33;43.60;99582.03;5048229;28;20041;-63
2021/08/22 11:40:09;;;;;;;5.93;1.90;;;;;;;21.28;44.90;99589.50;5057406;28;20118;-64
2021/08/22 11:42:36;;;;;;;2.63;1.50;;;;;;;21.36;44.19;99592.47;4999419;28;20044;-64
2021/08/22 11:45:14;;;;;;;4.65;2.03;;;;;;;21.48;43.66;99580.94;5009199;28;20072;-64
2021/08/22 11:47:40;;;;;;;1.55;1.45;;;;;;;21.50;42.66;99584.34;5049565;28;20413;-53